• Join FlightAware (Why Join?)
  • Login
  • US Flag 
07:09PM EDT


 

Airport Tracker/Info


-or-


 

Live Flight TrackerFlight Track Log ✈ JIA2421 ✈ 21-Jul-2013 ✈ KDCA - KJAX

Flight Track Log - Related Links

Times and Time Zones

All times are in EDT time to prevent confusion due to time zone crossing. See the JIA2421 flight status page for this flight to view local times or setup timezone preferences in your user account.

Time Position Orientation Groundspeed Altitude Reporting Facility
EDT Latitude Longitude Course Direction KTS MPH feet Rate Location/Type
09:39AM 38.8794 -77.0661 169° South 163 188 1,700  Level Washington Center
09:40AM 38.9206 -77.1097 320° Northwest 216 249 3,800 2,160 Climbing Washington Center
09:41AM 38.6143 -76.7858 134° Southeast  Level FlightAware Approximate
09:41AM 39.0000 -77.1667 331° Northwest 284 327 6,400  Level Potomac TRACON
09:42AM 38.5312 -76.7162 171° South  Level FlightAware Approximate
09:42AM 39.0500 -77.1000 46° Northeast 311 358 9,000  Level Potomac TRACON
09:43AM 38.4292 -76.7000 180° South  Level FlightAware Approximate
09:43AM 39.0333 -77.0000 102° East 310 357 11,000  Level Potomac TRACON
09:44AM 38.3393 -76.6833 180° South  Level FlightAware Approximate
09:44AM 38.9667 -76.9167 136° Southeast 332 382 13,100  Level Potomac TRACON
09:45AM 38.2372 -76.6718 169° South  Level FlightAware Approximate
09:46AM 38.8131 -76.8411 159° South 346 398 16,400  Level Washington Center
09:47AM 38.7239 -76.7997 160° South 346 398 17,800 1,260 Climbing Washington Center
09:48AM 38.6325 -76.7611 162° South 346 398 19,000 660 Climbing Washington Center
09:49AM 38.5369 -76.7250 164° South 346 398 19,200 780 Climbing Washington Center
09:50AM 38.4369 -76.7103 173° South 352 405 20,600 1,320 Climbing Washington Center
09:51AM 38.3350 -76.6981 175° South 365 420 21,900 1,080 Climbing Washington Center
09:52AM 38.2453 -76.6836 173° South 365 420 22,800 900 Climbing Washington Center
09:53AM 38.1411 -76.6717 175° South 370 426 23,800 960 Climbing Washington Center
09:54AM 38.0392 -76.6569 174° South 370 426 24,800 840 Climbing Washington Center
09:55AM 37.9350 -76.6475 176° South 370 426 25,600 720 Climbing Washington Center
09:56AM 37.8286 -76.6619 186° South 376 433 26,300 660 Climbing Washington Center
09:57AM 37.7200 -76.6761 186° South 383 441 27,000 660 Climbing Washington Center
09:58AM 37.6114 -76.6875 185° South 390 449 27,700 660 Climbing Washington Center
09:59AM 37.5006 -76.7017 186° South 395 455 28,300 540 Climbing Washington Center
10:00AM 37.3919 -76.7317 192° South 401 461 28,900 540 Climbing Washington Center
10:01AM 37.2850 -76.7744 198° South 401 461 29,500 540 Climbing Washington Center
10:02AM 37.1803 -76.8197 199° South 407 468 30,000 240 Climbing Washington Center
10:03AM 37.0736 -76.8647 199° South 407 468 30,000  Level Washington Center
10:04AM 36.9667 -76.9097 199° South 407 468 30,000  Level Washington Center
10:05AM 36.8619 -76.9547 199° South 407 468 30,000  Level Washington Center
10:06AM 36.7550 -76.9969 198° South 407 468 30,000  Level Washington Center
10:07AM 36.6561 -77.0650 209° Southwest 407 468 30,000  Level Washington Center
10:08AM 36.5694 -77.1514 219° Southwest 407 468 30,000  Level Washington Center
10:09AM 36.4808 -77.2297 215° Southwest 407 468 30,000  Level Washington Center
10:10AM 36.3919 -77.3156 218° Southwest 407 468 30,000  Level Washington Center
10:11AM 36.3031 -77.3986 217° Southwest 407 468 30,000  Level Washington Center
10:12AM 36.2183 -77.4817 218° Southwest 402 463 30,000  Level Washington Center
10:13AM 36.1272 -77.5644 216° Southwest 402 463 30,000  Level Washington Center
10:14AM 36.0297 -77.6569 218° Southwest 402 463 30,000  Level Washington Center
10:15AM 35.9386 -77.7367 215° Southwest 402 463 30,000  Level Washington Center
10:16AM 35.8433 -77.8111 212° Southwest 402 463 30,000  Level Washington Center
10:17AM 35.7503 -77.8853 213° Southwest 407 468 30,000  Level Washington Center
10:18AM 35.6547 -77.9617 213° Southwest 407 468 30,000  Level Washington Center
10:19AM 35.5594 -78.0328 211° Southwest 407 468 30,000  Level Washington Center
10:20AM 35.4642 -78.1064 212° Southwest 412 474 30,000  Level Washington Center
10:21AM 35.3664 -78.1800 212° Southwest 412 474 30,000  Level Washington Center
10:22AM 35.2689 -78.2556 212° Southwest 417 480 30,000  Level Washington Center
10:23AM 35.1733 -78.3311 213° Southwest 422 486 30,000  Level Washington Center
10:24AM 35.0756 -78.4067 212° Southwest 422 486 30,000  Level Washington Center
10:26AM 34.9164 -78.5256 211° Southwest 395 455 30,000  Level Jacksonville Center
10:27AM 34.8231 -78.5986 213° Southwest 402 463 30,000  Level Jacksonville Center
10:28AM 34.7233 -78.6744 212° Southwest 407 468 30,000  Level Jacksonville Center
10:29AM 34.6278 -78.7472 212° Southwest 407 468 30,000  Level Jacksonville Center
10:30AM 34.5300 -78.8225 212° Southwest 412 474 30,000  Level Jacksonville Center
10:31AM 34.4244 -78.9081 214° Southwest 417 480 30,000  Level Jacksonville Center
10:32AM 34.3286 -78.9828 213° Southwest 422 486 30,000  Level Jacksonville Center
10:33AM 34.2286 -79.0550 211° Southwest 422 486 30,000  Level Jacksonville Center
10:34AM 34.1328 -79.1269 212° Southwest 422 486 30,000  Level Jacksonville Center
10:35AM 34.0347 -79.1989 211° Southwest 417 480 30,000  Level Jacksonville Center
10:36AM 33.9389 -79.2706 212° Southwest 417 480 30,000  Level Jacksonville Center
10:37AM 33.8428 -79.3419 212° Southwest 417 480 30,000  Level Jacksonville Center
10:38AM 33.7467 -79.4133 212° Southwest 417 480 30,000  Level Jacksonville Center
10:39AM 33.6650 -79.4739 212° Southwest 412 474 30,000  Level Jacksonville Center
10:40AM 33.5686 -79.5450 212° Southwest 407 468 30,000  Level Jacksonville Center
10:41AM 33.4725 -79.6133 211° Southwest 407 468 30,000  Level Jacksonville Center
10:42AM 33.3700 -79.6917 213° Southwest 401 461 30,000  Level Jacksonville Center
10:43AM 33.2736 -79.7597 211° Southwest 401 461 30,000  Level Jacksonville Center
10:44AM 33.1775 -79.8300 211° Southwest 401 461 30,000  Level Jacksonville Center
10:45AM 33.0831 -79.9003 212° Southwest 401 461 30,000  Level Jacksonville Center
10:46AM 32.9844 -79.9681 210° Southwest 401 461 30,000  Level Jacksonville Center
10:47AM 32.8881 -80.0378 211° Southwest 401 461 30,000  Level Jacksonville Center
10:48AM 32.7956 -80.1125 214° Southwest 401 461 30,000  Level Jacksonville Center
10:49AM 32.7033 -80.1844 213° Southwest 406 467 30,000  Level Jacksonville Center
10:50AM 32.6089 -80.2589 214° Southwest 406 467 30,000  Level Jacksonville Center
10:51AM 32.5164 -80.3328 214° Southwest 411 473 30,000 -180 Level Jacksonville Center
10:52AM 32.4219 -80.4069 214° Southwest 411 473 29,700 -1,140 Descending Jacksonville Center
10:53AM 32.3189 -80.4833 212° Southwest 424 488 27,800 -1,500 Descending Jacksonville Center
10:54AM 32.2142 -80.5647 213° Southwest 454 522 26,700 -1,020 Descending Jacksonville Center
10:55AM 32.1214 -80.6383 214° Southwest 459 528 25,800 -1,020 Descending Jacksonville Center
10:56AM 32.0061 -80.7269 213° Southwest 454 522 24,700 -900 Descending Jacksonville Center
10:57AM 31.9050 -80.8025 212° Southwest 446 513 24,000 -360 Descending Jacksonville Center
10:58AM 31.8206 -80.8681 213° Southwest 424 488 24,000  Level Jacksonville Center
10:59AM 31.7194 -80.9436 212° Southwest 406 467 24,000 -900 Level Jacksonville Center
11:00AM 31.6264 -81.0139 213° Southwest 410 472 22,200 -1,980 Descending Jacksonville Center
11:01AM 31.5419 -81.0789 213° Southwest 405 466 20,100 -2,160 Descending Jacksonville Center
11:02AM 31.4425 -81.1514 212° Southwest 399 459 17,900 -2,160 Descending Jacksonville Center
11:03AM 31.3536 -81.2164 212° Southwest 389 448 15,800 -2,100 Descending Jacksonville Center
11:04AM 31.2753 -81.2811 215° Southwest 390 449 13,800 -1,860 Descending Jacksonville Center
11:05AM 31.1925 -81.3408 212° Southwest 379 436 12,100 -900 Descending Jacksonville Center
11:06AM 31.1219 -81.3928 212° Southwest 342 394 12,000 -540 Descending Jacksonville Center
11:07AM 31.0558 -81.4400 211° Southwest 307 353 11,100 -1,020 Descending Jacksonville Center
11:08AM 30.9725 -81.4631 193° South 294 338 10,000 -600 Descending Jacksonville Center
11:09AM 30.8936 -81.4861 194° South 294 338 10,000 -900 Level Jacksonville Center
11:10AM 30.8164 -81.5089 194° South 294 338 8,300 -1,800 Descending Jacksonville Center
11:11AM 30.7436 -81.5317 195° South 284 327 6,400 -2,040 Descending Jacksonville Center
11:12AM 30.6728 -81.5544 195° South 273 314 4,300 -1,800 Descending Jacksonville Center
11:13AM 30.6064 -81.5747 195° South 267 307 2,900 -1,440 Descending Jacksonville Center